Time;durP1;ratioP1;P1;durP2;ratioP2;P2;SDS_P1;SDS_P2;PMS_P1;PMS_P2;Temp;Humidity;BMP_temperature;BMP_pressure;BME280_temperature;BME280_humidity;BME280_pressure;Samples;Min_cycle;Max_cycle;Signal;HPM_P1;HPM_P2
2021/12/01 00:01:11;;;;;;;4.18;2.50;;;;;;;14.82;31.82;97043.84;5013576;28;20032;-31
2021/12/01 00:03:37;;;;;;;3.00;2.20;;;;;;;14.77;31.93;97043.63;5012974;28;20100;-31
2021/12/01 00:06:03;;;;;;;3.60;2.33;;;;;;;14.79;32.02;97041.22;5013172;28;20057;-31
2021/12/01 00:08:29;;;;;;;3.35;2.45;;;;;;;14.79;31.92;97041.22;5013077;28;20029;-31
2021/12/01 00:10:54;;;;;;;4.00;2.50;;;;;;;14.84;31.90;97037.94;5011629;28;20036;-31
2021/12/01 00:13:21;;;;;;;2.65;1.80;;;;;;;14.82;32.10;97037.63;5013265;28;20025;-31
2021/12/01 00:15:49;;;;;;;3.67;2.35;;;;;;;14.82;31.97;97041.13;5013007;28;20057;-31
2021/12/01 00:18:14;;;;;;;3.38;2.15;;;;;;;14.87;32.10;97042.53;5013050;28;20483;-31
2021/12/01 00:20:40;;;;;;;3.08;2.13;;;;;;;14.82;32.02;97040.38;5013177;28;20030;-31
2021/12/01 00:23:08;;;;;;;3.42;2.08;;;;;;;14.82;31.88;97034.91;5011826;28;20026;-31
2021/12/01 00:25:38;;;;;;;3.83;2.40;;;;;;;14.81;32.08;97039.59;5013035;28;20026;-31
2021/12/01 00:28:03;;;;;;;4.32;2.33;;;;;;;14.85;32.08;97028.53;5013351;28;20025;-31
2021/12/01 00:30:29;;;;;;;7.65;2.55;;;;;;;14.85;32.38;97023.09;5012936;28;20100;-31
2021/12/01 00:32:55;;;;;;;3.15;1.98;;;;;;;14.82;31.76;97023.97;5016335;28;20464;-31
2021/12/01 00:35:21;;;;;;;3.97;2.10;;;;;;;14.81;32.06;97014.25;5016444;28;20030;-31
2021/12/01 00:37:47;;;;;;;2.90;1.90;;;;;;;14.77;32.04;97011.63;5016741;28;20032;-31
2021/12/01 00:40:14;;;;;;;3.17;2.08;;;;;;;14.74;32.38;97009.78;5016574;28;20022;-31
2021/12/01 00:42:40;;;;;;;3.95;2.25;;;;;;;14.71;32.18;97007.94;5016434;28;20033;-31
2021/12/01 00:45:12;;;;;;;2.80;2.00;;;;;;;14.76;32.61;97001.16;5016307;28;20515;-31
2021/12/01 00:47:44;;;;;;;3.05;2.08;;;;;;;14.79;32.17;97009.22;5016340;28;20359;-31
2021/12/01 00:50:12;;;;;;;3.38;2.05;;;;;;;14.73;31.99;97011.75;5016383;28;20093;-31
2021/12/01 00:52:38;;;;;;;2.40;1.90;;;;;;;14.79;31.96;97017.44;5016668;28;20484;-31
2021/12/01 00:55:05;;;;;;;2.70;2.00;;;;;;;14.79;32.16;97013.94;5016815;28;20468;-31
2021/12/01 00:57:30;;;;;;;2.83;1.88;;;;;;;14.80;32.23;97015.47;5015889;28;20054;-31
2021/12/01 00:59:56;;;;;;;2.60;1.98;;;;;;;14.78;32.16;97017.84;5016306;28;20053;-31
2021/12/01 01:02:22;;;;;;;2.65;1.90;;;;;;;14.77;32.12;97016.34;5016297;28;20030;-31
2021/12/01 01:04:48;;;;;;;2.97;1.85;;;;;;;14.73;32.37;97008.25;5016124;28;20022;-31
2021/12/01 01:07:13;;;;;;;3.30;2.03;;;;;;;14.74;32.19;97009.78;5016340;28;20449;-31
2021/12/01 01:09:40;;;;;;;2.83;1.63;;;;;;;14.76;32.46;97017.53;5015801;28;20022;-31
2021/12/01 01:17:38;;;;;;;2.75;2.10;;;;;;;14.71;32.61;97005.22;5015808;28;20392;-31
2021/12/01 01:20:10;;;;;;;3.67;2.28;;;;;;;14.74;32.70;97002.34;5015830;28;20021;-31
2021/12/01 01:22:36;;;;;;;4.93;1.77;;;;;;;14.73;32.43;97006.28;5015639;28;20108;-31
2021/12/01 01:25:03;;;;;;;2.33;1.67;;;;;;;14.71;32.84;97005.94;5015965;28;20026;-31
2021/12/01 01:27:29;;;;;;;3.05;1.60;;;;;;;14.71;32.91;97002.50;5015860;28;20037;-31
2021/12/01 01:29:54;;;;;;;2.25;1.48;;;;;;;14.70;32.85;96999.00;5015448;28;20026;-31
2021/12/01 01:32:20;;;;;;;2.28;1.73;;;;;;;14.65;33.02;96998.78;5015487;28;20029;-31
2021/12/01 01:34:45;;;;;;;2.97;1.70;;;;;;;14.69;33.07;96997.47;5015547;28;20459;-31
2021/12/01 01:37:11;;;;;;;4.38;1.60;;;;;;;14.74;33.25;96996.13;5015565;28;20037;-31
2021/12/01 01:39:36;;;;;;;2.80;1.75;;;;;;;14.71;33.32;96995.03;5015290;28;20065;-31
2021/12/01 01:42:02;;;;;;;2.95;1.50;;;;;;;14.71;32.97;96991.56;5015476;28;20156;-31
2021/12/01 01:44:30;;;;;;;2.25;1.63;;;;;;;14.73;33.14;96995.34;5014266;28;20464;-31
2021/12/01 01:46:56;;;;;;;3.05;1.90;;;;;;;14.70;33.43;96990.03;5015220;28;20400;-31
2021/12/01 01:49:34;;;;;;;3.17;1.83;;;;;;;14.70;33.38;96985.34;5014149;28;20026;-31
2021/12/01 01:52:00;;;;;;;3.60;1.75;;;;;;;14.70;33.52;96979.13;5015506;28;20030;-31
2021/12/01 01:54:25;;;;;;;2.67;1.70;;;;;;;14.70;33.77;96971.69;5015015;28;20026;-31
2021/12/01 01:56:51;;;;;;;2.88;1.90;;;;;;;14.68;33.57;96965.13;5015097;28;20025;-31
2021/12/01 01:59:16;;;;;;;4.53;1.50;;;;;;;14.65;33.76;96964.03;5015027;28;20029;-31
2021/12/01 02:01:44;;;;;;;2.78;1.70;;;;;;;14.63;33.64;96952.78;5014816;28;20033;-31
2021/12/01 02:04:18;;;;;;;2.28;1.30;;;;;;;14.66;33.83;96964.81;5014864;28;20017;-31
2021/12/01 02:06:48;;;;;;;2.47;1.40;;;;;;;14.72;33.68;96961.06;5014855;28;20026;-31
2021/12/01 02:09:15;;;;;;;2.08;1.08;;;;;;;14.68;33.61;96960.44;5014873;28;20029;-31
2021/12/01 02:11:42;;;;;;;2.55;1.67;;;;;;;14.66;33.81;96964.81;5014736;28;20033;-31
2021/12/01 02:14:08;;;;;;;2.35;1.40;;;;;;;14.62;33.86;96973.09;5014647;28;20060;-31
2021/12/01 02:16:35;;;;;;;1.90;1.50;;;;;;;14.60;34.11;96953.66;5013545;28;20034;-31
2021/12/01 02:19:00;;;;;;;2.72;1.40;;;;;;;14.66;33.90;96946.47;5014641;28;20029;-31
2021/12/01 02:21:28;;;;;;;2.65;1.40;;;;;;;14.61;34.19;96943.50;5014818;28;20028;-31
2021/12/01 02:23:59;;;;;;;1.80;1.33;;;;;;;14.60;34.07;96937.28;5015039;28;20029;-31
2021/12/01 02:26:26;;;;;;;2.17;1.40;;;;;;;14.69;34.00;96933.91;5014724;28;20032;-31
2021/12/01 02:28:55;;;;;;;2.05;1.48;;;;;;;14.67;33.88;96948.00;5014596;28;20037;-31
2021/12/01 02:31:25;;;;;;;2.00;1.27;;;;;;;14.60;33.85;96931.84;5014312;28;20425;-31
2021/12/01 02:33:51;;;;;;;1.90;1.48;;;;;;;14.61;34.27;96933.38;5013222;28;20087;-31
2021/12/01 02:36:17;;;;;;;2.65;1.30;;;;;;;14.66;33.92;96923.88;5014347;28;20065;-31
2021/12/01 02:38:45;;;;;;;2.95;1.45;;;;;;;14.64;34.12;96926.25;5014354;28;20065;-31
2021/12/01 02:41:11;;;;;;;2.20;1.30;;;;;;;14.59;33.98;96935.00;5014523;28;20030;-31
2021/12/01 02:43:38;;;;;;;1.60;1.13;;;;;;;14.61;34.20;96938.81;5014261;28;20036;-31
2021/12/01 02:46:04;;;;;;;2.70;1.60;;;;;;;14.69;34.14;96934.66;5014306;28;20048;-31
2021/12/01 02:48:30;;;;;;;2.30;1.50;;;;;;;14.68;34.15;96935.88;5013174;28;20458;-31
2021/12/01 02:50:56;;;;;;;2.05;1.25;;;;;;;14.60;34.37;96931.06;5014121;28;20510;-31
2021/12/01 02:53:23;;;;;;;2.17;1.23;;;;;;;14.61;34.11;96925.16;5014026;28;20029;-31
2021/12/01 02:56:00;;;;;;;1.80;1.30;;;;;;;14.63;34.42;96914.59;5013818;28;20025;-31
2021/12/01 02:58:28;;;;;;;1.75;1.20;;;;;;;14.66;34.23;96921.91;5013779;28;20054;-31
2021/12/01 03:00:57;;;;;;;3.10;1.20;;;;;;;14.63;34.34;96913.81;5014113;28;20045;-31
2021/12/01 03:03:23;;;;;;;2.33;1.15;;;;;;;14.57;34.23;96910.91;5013913;28;20468;-31
2021/12/01 03:05:50;;;;;;;1.73;1.50;;;;;;;14.67;34.19;96904.31;5014183;28;20026;-31
2021/12/01 03:08:17;;;;;;;1.95;1.20;;;;;;;14.64;34.55;96905.19;5014098;28;20030;-31
2021/12/01 03:10:44;;;;;;;1.60;1.15;;;;;;;14.62;34.38;96909.56;5013594;28;20530;-31
2021/12/01 03:13:10;;;;;;;2.63;1.25;;;;;;;14.58;34.32;96887.88;5013868;28;20103;-31
2021/12/01 03:15:35;;;;;;;2.00;1.20;;;;;;;14.61;34.57;96889.69;5013564;28;20488;-31
2021/12/01 03:18:01;;;;;;;3.25;1.50;;;;;;;14.64;34.63;96898.97;5013826;28;20527;-31
2021/12/01 03:20:27;;;;;;;2.22;1.13;;;;;;;14.64;34.50;96888.81;5013653;28;20025;-31
2021/12/01 03:22:52;;;;;;;2.25;1.30;;;;;;;14.56;34.92;96893.00;5013724;28;20033;-31
2021/12/01 03:25:18;;;;;;;2.63;1.30;;;;;;;14.52;35.01;96884.16;5013773;28;20022;-31
2021/12/01 03:27:43;;;;;;;3.38;1.35;;;;;;;14.62;34.77;96891.22;5013938;28;20033;-31
2021/12/01 03:30:11;;;;;;;2.97;1.10;;;;;;;14.58;35.01;96879.69;5013508;28;20037;-31
2021/12/01 03:32:37;;;;;;;2.63;1.13;;;;;;;14.62;34.85;96880.28;5013719;28;20040;-31
2021/12/01 03:35:09;;;;;;;2.63;1.40;;;;;;;14.56;35.24;96879.34;5013649;28;20021;-31
2021/12/01 03:37:35;;;;;;;2.03;1.30;;;;;;;14.61;34.86;96870.59;5013951;28;20380;-31
2021/12/01 03:40:01;;;;;;;1.88;1.30;;;;;;;14.56;34.91;96862.97;5013644;28;20108;-31
2021/12/01 03:42:27;;;;;;;1.80;1.25;;;;;;;14.61;35.14;96856.16;5013456;28;20022;-31
2021/12/01 03:44:55;;;;;;;1.73;1.13;;;;;;;14.54;35.29;96873.56;5013512;28;20026;-31
2021/12/01 03:47:21;;;;;;;2.42;1.30;;;;;;;14.52;35.24;96870.50;5013446;28;20049;-31
2021/12/01 03:49:46;;;;;;;1.83;1.30;;;;;;;14.56;35.47;96865.69;5012048;28;20026;-31
2021/12/01 03:52:16;;;;;;;2.85;1.92;;;;;;;14.53;35.54;96852.16;5013294;28;20105;-31
2021/12/01 03:54:42;;;;;;;2.70;1.33;;;;;;;14.57;35.45;96850.84;5012192;28;20426;-31
2021/12/01 03:57:07;;;;;;;3.47;1.30;;;;;;;14.52;35.70;96850.63;5013071;28;20124;-31
2021/12/01 03:59:33;;;;;;;2.53;1.27;;;;;;;14.57;35.43;96848.13;5013285;28;20030;-32
2021/12/01 04:01:58;;;;;;;2.22;1.10;;;;;;;14.57;35.60;96842.66;5013591;28;20036;-31
2021/12/01 04:04:24;;;;;;;2.28;1.20;;;;;;;14.62;35.47;96842.09;5013211;28;20136;-31
2021/12/01 04:06:49;;;;;;;2.42;1.40;;;;;;;14.58;35.66;96846.91;5014641;28;20053;-31
2021/12/01 04:09:14;;;;;;;3.45;1.52;;;;;;;14.65;35.57;96849.41;5016978;28;20471;-31
2021/12/01 04:11:40;;;;;;;2.20;1.20;;;;;;;14.69;35.67;96846.53;5017249;28;20457;-31
2021/12/01 04:14:05;;;;;;;2.75;1.30;;;;;;;14.59;35.85;96840.22;5016950;28;20026;-31
2021/12/01 04:16:31;;;;;;;2.88;1.30;;;;;;;14.61;36.05;96837.06;5016894;28;20032;-31
2021/12/01 04:18:56;;;;;;;2.95;1.17;;;;;;;14.59;35.80;96829.31;5016996;28;20021;-31
2021/12/01 04:21:24;;;;;;;2.28;1.25;;;;;;;14.56;35.90;96832.94;5016721;28;20032;-31
2021/12/01 04:23:49;;;;;;;2.03;1.13;;;;;;;14.64;36.09;96823.28;5016797;28;20022;-31
2021/12/01 04:26:19;;;;;;;2.15;1.25;;;;;;;14.61;35.98;96818.72;5016901;28;20033;-31
2021/12/01 04:28:44;;;;;;;3.67;1.25;;;;;;;14.60;36.10;96817.19;5016921;28;20024;-31
2021/12/01 04:31:10;;;;;;;2.80;1.40;;;;;;;14.58;36.27;96807.94;5016754;28;20120;-31
2021/12/01 04:33:35;;;;;;;1.95;1.10;;;;;;;14.54;36.47;96801.84;5016622;28;20077;-31
2021/12/01 04:36:01;;;;;;;2.63;1.20;;;;;;;14.53;36.38;96806.53;5016516;28;20026;-31
2021/12/01 04:38:26;;;;;;;3.53;1.30;;;;;;;14.58;36.54;96814.16;5016586;28;20050;-31
2021/12/01 04:40:52;;;;;;;5.18;1.40;;;;;;;14.55;36.13;96809.59;5016407;28;20018;-31
2021/12/01 04:43:17;;;;;;;3.15;1.55;;;;;;;14.56;36.56;96808.38;5015194;28;20464;-31
2021/12/01 04:45:45;;;;;;;2.00;1.20;;;;;;;14.49;36.72;96811.34;5016429;28;20034;-31
2021/12/01 04:48:10;;;;;;;2.20;1.25;;;;;;;14.57;36.46;96814.59;5016254;28;20018;-31
2021/12/01 04:50:36;;;;;;;5.57;1.77;;;;;;;14.61;36.52;96816.00;5016070;28;20034;-31
2021/12/01 04:53:01;;;;;;;4.38;1.30;;;;;;;14.62;36.61;96814.78;5016553;28;20022;-31
2021/12/01 04:55:27;;;;;;;1.88;1.27;;;;;;;14.54;36.70;96810.78;5016454;28;20353;-31
2021/12/01 04:57:53;;;;;;;2.92;1.40;;;;;;;14.58;36.66;96819.63;5015942;28;20054;-31
2021/12/01 05:00:22;;;;;;;2.10;1.30;;;;;;;14.56;36.92;96822.03;5016228;28;20018;-31
2021/12/01 05:02:48;;;;;;;3.20;1.30;;;;;;;14.64;36.86;96817.84;5016043;28;20125;-31
2021/12/01 05:05:14;;;;;;;2.05;1.30;;;;;;;14.60;36.97;96817.19;5015882;28;20029;-31
2021/12/01 05:07:40;;;;;;;2.55;1.55;;;;;;;14.60;36.92;96816.44;5016160;28;20045;-31
2021/12/01 05:10:06;;;;;;;2.33;1.27;;;;;;;14.63;36.88;96812.81;5016243;28;20025;-31
2021/12/01 05:12:34;;;;;;;2.65;1.10;;;;;;;14.63;37.12;96810.09;5016159;28;20435;-31
2021/12/01 05:14:59;;;;;;;2.45;1.13;;;;;;;14.55;37.03;96806.09;5015931;28;20400;-31
2021/12/01 05:17:25;;;;;;;3.85;1.15;;;;;;;14.60;37.10;96817.19;5015591;28;20081;-31
2021/12/01 05:19:50;;;;;;;3.22;1.15;;;;;;;14.55;37.31;96809.59;5015918;28;20038;-31
2021/12/01 05:22:16;;;;;;;5.35;1.63;;;;;;;14.60;37.34;96803.53;5015858;28;20037;-31
2021/12/01 05:24:41;;;;;;;5.07;1.50;;;;;;;14.64;37.09;96809.66;5015794;28;20018;-31
2021/12/01 05:27:07;;;;;;;3.72;1.52;;;;;;;14.63;37.36;96802.66;5016038;28;20472;-31
2021/12/01 05:29:32;;;;;;;3.15;1.40;;;;;;;14.66;37.05;96801.03;5014304;28;20022;-31
2021/12/01 05:31:59;;;;;;;1.88;1.25;;;;;;;14.64;37.25;96806.91;5015569;28;20491;-31
2021/12/01 05:34:25;;;;;;;2.38;1.35;;;;;;;14.54;37.31;96813.53;5015535;28;20101;-31
2021/12/01 05:36:51;;;;;;;2.97;1.33;;;;;;;14.51;37.60;96819.84;5015896;28;20104;-31
2021/12/01 05:39:18;;;;;;;1.92;1.30;;;;;;;14.56;37.61;96811.13;5015309;28;20468;-31
2021/12/01 05:41:44;;;;;;;4.30;1.40;;;;;;;14.44;38.02;96813.88;5015392;28;20036;-31
2021/12/01 05:44:09;;;;;;;3.25;1.20;;;;;;;14.62;37.58;96820.25;5015411;28;20109;-31
2021/12/01 05:46:35;;;;;;;2.33;1.30;;;;;;;14.54;37.85;96808.06;5015487;28;20054;-31
2021/12/01 05:49:01;;;;;;;4.75;1.40;;;;;;;14.60;38.15;96811.72;5015191;28;20449;-31
2021/12/01 05:51:26;;;;;;;3.85;1.35;;;;;;;14.63;38.06;96808.13;5015138;28;20056;-31
2021/12/01 05:53:52;;;;;;;3.05;1.48;;;;;;;14.56;38.03;96810.34;5015165;28;20389;-31
2021/12/01 05:56:17;;;;;;;4.43;1.58;;;;;;;14.55;38.22;96809.59;5015091;28;20156;-31
2021/12/01 05:58:43;;;;;;;2.60;1.33;;;;;;;14.46;38.67;96806.78;5014922;28;20077;-31
2021/12/01 06:01:09;;;;;;;4.10;1.30;;;;;;;14.40;38.81;96810.50;5015294;28;20022;-31
2021/12/01 06:03:34;;;;;;;2.17;1.05;;;;;;;14.47;38.77;96818.44;5014868;28;20041;-31
2021/12/01 06:06:00;;;;;;;2.35;1.02;;;;;;;14.46;38.83;96803.31;5030108;28;20030;-31
2021/12/01 06:08:25;;;;;;;3.60;1.10;;;;;;;14.59;38.73;96809.44;5033001;28;20033;-31
2021/12/01 06:10:51;;;;;;;2.53;1.67;;;;;;;14.58;38.50;96808.72;5032734;28;20403;-31
2021/12/01 06:13:18;;;;;;;3.33;1.20;;;;;;;14.60;38.91;96813.69;5032806;28;20467;-31
2021/12/01 06:15:44;;;;;;;2.08;1.10;;;;;;;14.50;39.23;96812.09;5032735;28;20037;-31
2021/12/01 06:18:11;;;;;;;4.55;1.90;;;;;;;14.55;39.21;96811.56;5032549;28;20079;-31
2021/12/01 06:20:38;;;;;;;3.47;1.40;;;;;;;14.56;39.17;96819.31;5032808;28;20025;-31
2021/12/01 06:23:03;;;;;;;2.40;1.25;;;;;;;14.58;38.88;96825.09;5021920;28;20025;-31
2021/12/01 06:25:29;;;;;;;4.03;1.60;;;;;;;14.62;38.80;96825.69;5011632;28;20176;-31
2021/12/01 06:27:56;;;;;;;2.40;1.25;;;;;;;14.56;39.16;96819.31;5012511;28;20037;-31
2021/12/01 06:30:23;;;;;;;3.40;1.35;;;;;;;14.59;39.36;96817.63;5012251;28;20128;-32
2021/12/01 06:32:49;;;;;;;3.17;1.20;;;;;;;14.55;39.47;96817.00;5012325;28;20041;-31
2021/12/01 06:35:14;;;;;;;3.65;2.05;;;;;;;14.61;39.52;96809.75;5012836;28;20495;-32
2021/12/01 06:37:40;;;;;;;4.82;1.33;;;;;;;14.60;39.30;96803.53;5012642;28;20041;-31
2021/12/01 06:40:07;;;;;;;3.70;1.30;;;;;;;14.61;39.51;96810.53;5012253;28;20422;-31
2021/12/01 06:42:33;;;;;;;2.75;1.23;;;;;;;14.57;39.46;96806.41;5012471;28;20040;-31
2021/12/01 06:44:59;;;;;;;2.17;1.38;;;;;;;14.65;39.19;96808.44;5012594;28;20038;-31
2021/12/01 06:47:24;;;;;;;2.42;1.60;;;;;;;14.62;39.41;96814.78;5012556;28;20030;-31
2021/12/01 06:49:50;;;;;;;5.53;1.92;;;;;;;14.59;39.58;96820.34;5012424;28;20093;-31
2021/12/01 06:52:15;;;;;;;5.03;2.53;;;;;;;14.60;39.52;96805.50;5012231;28;20057;-31
2021/12/01 06:54:41;;;;;;;4.75;2.17;;;;;;;14.62;39.59;96812.06;5012392;28;20033;-31
2021/12/01 06:57:06;;;;;;;3.30;2.00;;;;;;;14.66;39.21;96811.94;5012358;28;20042;-31
2021/12/01 06:59:32;;;;;;;3.88;1.98;;;;;;;14.57;39.36;96807.19;5021119;28;20029;-31
2021/12/01 07:01:57;;;;;;;4.45;2.08;;;;;;;14.57;39.75;96796.25;5032052;28;20160;-31
2021/12/01 07:04:22;;;;;;;5.90;2.30;;;;;;;14.54;39.62;96801.84;5031637;28;20040;-31
2021/12/01 07:06:48;;;;;;;5.97;2.10;;;;;;;14.52;39.93;96796.06;5031862;28;20037;-31
2021/12/01 07:09:18;;;;;;;4.15;1.95;;;;;;;14.53;39.72;96805.78;5031418;28;20052;-31
2021/12/01 07:11:45;;;;;;;6.10;2.08;;;;;;;14.57;39.78;96800.97;5031904;28;20104;-31
2021/12/01 07:14:11;;;;;;;3.65;2.15;;;;;;;14.58;39.64;96788.84;5031812;28;20026;-31
2021/12/01 07:16:37;;;;;;;5.00;1.92;;;;;;;14.55;39.83;96782.28;5031261;28;20155;-31
2021/12/01 07:19:03;;;;;;;5.68;2.17;;;;;;;14.56;40.02;96783.81;5031855;28;20096;-31
2021/12/01 07:21:28;;;;;;;5.88;2.28;;;;;;;14.55;40.06;96793.22;5031773;28;20057;-31
2021/12/01 07:23:54;;;;;;;6.88;2.00;;;;;;;14.56;39.88;96794.75;5030354;28;20071;-31
2021/12/01 07:26:19;;;;;;;6.55;2.00;;;;;;;14.58;39.82;96802.47;5031773;28;20036;-31
2021/12/01 07:28:44;;;;;;;4.25;2.00;;;;;;;14.57;40.21;96795.50;5031316;28;20021;-31
2021/12/01 07:31:10;;;;;;;4.03;1.80;;;;;;;14.51;40.06;96803.47;5031389;28;20029;-31
2021/12/01 07:33:35;;;;;;;6.90;2.03;;;;;;;14.58;39.98;96797.78;5030941;28;20041;-31
2021/12/01 07:36:01;;;;;;;4.65;1.80;;;;;;;14.60;40.18;96789.91;5031648;28;20021;-31
2021/12/01 07:38:26;;;;;;;5.72;1.83;;;;;;;14.63;40.00;96804.63;5031697;28;20570;-31
2021/12/01 07:40:52;;;;;;;5.18;2.33;;;;;;;14.55;40.11;96801.41;5031541;28;20029;-31
2021/12/01 07:43:17;;;;;;;4.60;1.70;;;;;;;14.42;40.83;96789.78;5034378;28;20025;-31
2021/12/01 07:45:43;;;;;;;5.28;2.03;;;;;;;14.53;40.41;96778.47;5035540;28;20375;-31
2021/12/01 07:48:10;;;;;;;4.47;1.80;;;;;;;14.35;40.94;96779.06;5035756;28;20025;-31
2021/12/01 07:50:36;;;;;;;3.78;1.85;;;;;;;14.52;40.66;96772.25;5035440;28;20029;-31
2021/12/01 07:53:02;;;;;;;4.32;1.90;;;;;;;14.56;40.69;96778.34;5035749;28;20430;-31
2021/12/01 07:55:27;;;;;;;4.82;1.80;;;;;;;14.52;40.83;96787.88;5033984;28;20041;-31
2021/12/01 07:57:52;;;;;;;3.42;1.60;;;;;;;14.58;41.00;96781.41;5035066;28;20103;-31
2021/12/01 08:00:18;;;;;;;2.78;1.30;;;;;;;14.53;40.99;96790.16;5019818;28;20022;-31
2021/12/01 08:02:45;;;;;;;5.43;2.22;;;;;;;14.50;41.48;96784.81;5015565;28;20026;-31
2021/12/01 08:05:11;;;;;;;4.68;2.03;;;;;;;14.54;41.24;96772.56;5015341;28;20045;-31
2021/12/01 08:07:38;;;;;;;2.78;1.58;;;;;;;14.55;41.35;96776.06;5015452;28;21384;-31
2021/12/01 08:10:05;;;;;;;2.75;1.70;;;;;;;14.58;41.29;96781.41;5015351;28;20061;-31
2021/12/01 08:12:32;;;;;;;3.55;1.33;;;;;;;14.54;41.43;96780.75;5013995;28;20018;-31
2021/12/01 08:14:58;;;;;;;3.28;1.52;;;;;;;14.59;41.18;96787.59;5015431;28;20113;-31
2021/12/01 08:17:23;;;;;;;5.35;1.70;;;;;;;14.59;41.41;96782.16;5015326;28;20108;-31
2021/12/01 08:19:49;;;;;;;3.95;1.58;;;;;;;14.58;41.41;96778.69;5015276;28;20021;-31
2021/12/01 08:22:14;;;;;;;4.20;1.70;;;;;;;14.57;41.58;96785.34;5013839;28;20026;-31
2021/12/01 08:24:39;;;;;;;4.95;1.50;;;;;;;14.56;41.83;96783.06;5015060;28;20041;-31
2021/12/01 08:27:05;;;;;;;3.70;1.67;;;;;;;14.56;41.58;96786.53;5015265;28;20046;-31
2021/12/01 08:29:31;;;;;;;5.47;1.70;;;;;;;14.59;41.51;96780.19;5015064;28;20391;-31
2021/12/01 08:31:59;;;;;;;3.92;1.50;;;;;;;14.63;41.52;96777.34;5015007;28;20065;-31
2021/12/01 08:34:25;;;;;;;3.58;1.75;;;;;;;14.58;41.65;96778.69;5015052;28;20512;-31
2021/12/01 08:36:51;;;;;;;5.07;1.58;;;;;;;14.46;42.15;96774.03;5015062;28;20117;-31
2021/12/01 08:39:17;;;;;;;2.92;1.33;;;;;;;14.49;42.18;96775.88;5015040;28;20064;-31
2021/12/01 08:41:42;;;;;;;2.90;1.40;;;;;;;14.58;42.08;96769.72;5014784;28;20049;-31
2021/12/01 08:44:08;;;;;;;4.32;1.75;;;;;;;14.58;42.27;96775.19;5014664;28;20108;-31
2021/12/01 08:46:34;;;;;;;4.78;1.95;;;;;;;14.56;42.16;96781.09;5025843;28;20086;-31
2021/12/01 08:49:01;;;;;;;3.50;1.30;;;;;;;14.51;42.40;96773.47;5034129;28;20029;-31
2021/12/01 08:51:28;;;;;;;5.38;1.55;;;;;;;14.61;42.11;96772.31;5034163;28;20041;-31
2021/12/01 08:53:53;;;;;;;3.25;1.20;;;;;;;14.59;42.03;96777.44;5033706;28;20062;-31
2021/12/01 08:56:19;;;;;;;3.45;1.55;;;;;;;14.58;42.46;96769.72;5034394;28;20025;-31
2021/12/01 08:58:44;;;;;;;2.25;1.10;;;;;;;14.57;42.62;96773.66;5034227;28;20053;-31
2021/12/01 09:01:10;;;;;;;4.03;1.60;;;;;;;14.53;42.69;96773.78;5032701;28;20029;-31
2021/12/01 09:03:36;;;;;;;3.42;1.30;;;;;;;14.59;42.49;96771.22;5033971;28;20429;-31
2021/12/01 09:06:03;;;;;;;4.60;1.60;;;;;;;14.50;42.98;96774.66;5034123;28;20029;-31
2021/12/01 09:08:28;;;;;;;5.82;1.40;;;;;;;14.58;42.67;96767.75;5034105;28;20116;-31
2021/12/01 09:10:58;;;;;;;4.30;1.40;;;;;;;14.56;42.90;96767.44;5033858;28;20147;-31
2021/12/01 09:13:26;;;;;;;3.15;1.35;;;;;;;14.62;42.77;96770.34;5033877;28;20030;-31
2021/12/01 09:15:53;;;;;;;3.08;1.40;;;;;;;14.63;42.74;96767.19;5034155;28;20151;-31
2021/12/01 09:18:19;;;;;;;5.10;1.25;;;;;;;14.55;43.00;96771.38;5033817;28;20071;-31
2021/12/01 09:20:45;;;;;;;4.30;1.20;;;;;;;14.56;43.21;96778.34;5033914;28;20025;-31
2021/12/01 09:23:11;;;;;;;3.65;1.33;;;;;;;14.60;42.62;96778.97;5032807;28;20032;-31
2021/12/01 09:25:39;;;;;;;3.50;1.27;;;;;;;14.64;43.01;96774.16;5033871;28;20460;-31
2021/12/01 09:28:05;;;;;;;5.57;1.30;;;;;;;14.55;43.29;96773.34;5033396;28;20483;-31
2021/12/01 09:30:31;;;;;;;4.57;1.27;;;;;;;14.54;43.17;96775.31;5033502;28;20030;-31
2021/12/01 09:32:57;;;;;;;7.35;3.17;;;;;;;13.86;46.98;96771.34;5033327;28;20072;-30
2021/12/01 09:35:22;;;;;;;8.63;3.30;;;;;;;14.00;48.17;96772.84;5033307;28;20446;-29
2021/12/01 09:37:48;;;;;;;6.40;3.50;;;;;;;14.34;47.33;96761.91;5033103;28;20468;-29
2021/12/01 09:40:17;;;;;;;7.70;3.97;;;;;;;14.50;46.27;96761.00;5031673;28;20108;-29
2021/12/01 09:42:49;;;;;;;7.85;3.70;;;;;;;14.67;44.95;96772.53;5032169;28;20033;-29
2021/12/01 09:45:17;;;;;;;8.80;3.22;;;;;;;14.70;44.99;96766.94;5015733;28;20030;-29
2021/12/01 09:47:43;;;;;;;7.47;3.70;;;;;;;14.65;44.93;96758.56;5015291;28;20109;-29
2021/12/01 09:50:09;;;;;;;4.63;3.10;;;;;;;14.67;44.71;96756.91;5015077;28;20030;-29
2021/12/01 09:52:35;;;;;;;9.10;3.97;;;;;;;14.62;45.04;96752.00;5015254;28;20119;-29
2021/12/01 09:55:01;;;;;;;6.25;2.95;;;;;;;14.62;45.26;96752.00;5015237;28;20470;-29
2021/12/01 09:57:26;;;;;;;8.38;2.42;;;;;;;14.59;45.10;96747.44;5014953;28;20053;-29
2021/12/01 09:59:52;;;;;;;4.75;3.13;;;;;;;14.69;44.71;96754.50;5015005;28;20026;-29
2021/12/01 10:02:18;;;;;;;5.03;2.50;;;;;;;14.61;44.84;96747.75;5015120;28;20065;-29
2021/12/01 10:04:46;;;;;;;5.20;2.83;;;;;;;14.79;44.44;96746.34;5014243;28;20152;-29
2021/12/01 10:07:17;;;;;;;6.72;2.70;;;;;;;14.82;44.12;96740.00;5014990;28;20057;-29
2021/12/01 10:09:46;;;;;;;6.32;2.50;;;;;;;14.72;44.51;96730.97;5014794;28;20032;-29
2021/12/01 10:12:12;;;;;;;5.03;2.53;;;;;;;14.55;44.91;96733.16;5015114;28;20380;-29
2021/12/01 10:14:44;;;;;;;6.45;2.70;;;;;;;14.69;44.65;96737.34;5015058;28;20033;-29
2021/12/01 10:17:09;;;;;;;5.00;2.40;;;;;;;14.50;45.23;96727.50;5014942;28;20025;-29
2021/12/01 10:19:35;;;;;;;7.20;2.45;;;;;;;14.65;44.84;96728.53;5014665;28;20033;-29
2021/12/01 10:22:07;;;;;;;5.00;2.17;;;;;;;14.51;45.22;96727.06;5014706;28;20023;-29
2021/12/01 10:24:36;;;;;;;7.00;2.47;;;;;;;14.66;44.73;96728.09;5014758;28;20064;-29
2021/12/01 10:27:08;;;;;;;5.32;2.30;;;;;;;14.58;45.33;96731.53;5014679;28;20049;-29
2021/12/01 10:29:41;;;;;;;5.25;2.03;;;;;;;14.74;44.65;96725.84;5014664;28;20041;-29
2021/12/01 10:32:09;;;;;;;5.07;2.38;;;;;;;14.59;45.19;96728.31;5014679;28;20037;-29
2021/12/01 10:34:44;;;;;;;7.47;2.50;;;;;;;14.64;45.06;96725.03;5014363;28;20022;-29
2021/12/01 10:37:22;;;;;;;5.85;2.22;;;;;;;14.57;45.20;96711.66;5014844;28;20026;-29
2021/12/01 10:40:01;;;;;;;5.15;2.53;;;;;;;14.63;45.31;96711.81;5014356;28;20028;-29
2021/12/01 10:42:26;;;;;;;5.38;2.55;;;;;;;14.76;44.86;96709.00;5014463;28;20022;-29
2021/12/01 10:45:04;;;;;;;4.75;2.58;;;;;;;14.76;44.86;96711.75;5014077;28;20026;-29
2021/12/01 10:47:42;;;;;;;6.22;2.22;;;;;;;14.77;44.85;96702.34;5014347;28;20496;-29
2021/12/01 10:50:13;;;;;;;5.60;2.42;;;;;;;14.65;45.39;96703.97;5014320;28;20084;-29
2021/12/01 10:52:45;;;;;;;6.03;2.17;;;;;;;14.75;44.70;96686.41;5014137;28;20030;-29
2021/12/01 10:55:26;;;;;;;4.38;2.13;;;;;;;14.74;45.06;96696.56;5014311;28;20033;-29
2021/12/01 10:57:58;;;;;;;3.83;2.28;;;;;;;14.70;45.15;96690.50;5013841;28;20403;-29
2021/12/01 11:00:30;;;;;;;5.72;2.28;;;;;;;14.70;45.23;96684.28;5014127;28;20030;-29
2021/12/01 11:03:19;;;;;;;6.07;1.95;;;;;;;14.68;45.47;96686.69;5013984;28;20026;-29
2021/12/01 11:05:48;;;;;;;6.45;2.58;;;;;;;14.60;45.49;96680.72;5013817;28;20065;-29
2021/12/01 11:08:17;;;;;;;6.15;2.60;;;;;;;14.75;45.31;96683.69;5013938;28;20082;-29
2021/12/01 11:10:44;;;;;;;6.50;2.70;;;;;;;14.81;45.11;96675.69;5013698;28;20542;-29
2021/12/01 11:13:11;;;;;;;6.00;2.97;;;;;;;14.79;45.50;96669.91;5013690;28;20022;-29
2021/12/01 11:15:42;;;;;;;4.40;2.38;;;;;;;14.82;45.15;96661.59;5013802;28;20108;-29
2021/12/01 11:18:15;;;;;;;6.07;3.03;;;;;;;14.84;45.15;96661.88;5013849;28;20022;-29
2021/12/01 11:20:49;;;;;;;9.02;3.38;;;;;;;14.60;46.27;96656.16;5013588;28;20026;-29
2021/12/01 11:23:33;;;;;;;6.60;2.70;;;;;;;14.75;45.49;96653.66;5013740;28;20029;-29
2021/12/01 11:26:11;;;;;;;5.68;3.00;;;;;;;14.80;45.61;96639.44;5013827;28;20112;-29
2021/12/01 11:28:40;;;;;;;5.70;2.80;;;;;;;14.82;45.25;96636.25;5013545;28;20032;-29
2021/12/01 11:31:16;;;;;;;5.63;2.60;;;;;;;14.74;45.58;96635.75;5013444;28;20092;-29
2021/12/01 11:33:44;;;;;;;8.00;2.95;;;;;;;14.70;45.73;96638.63;5013570;28;20033;-29
2021/12/01 11:36:14;;;;;;;6.30;3.10;;;;;;;14.81;45.61;96635.50;5013494;28;20026;-29
2021/12/01 11:38:41;;;;;;;6.38;2.97;;;;;;;14.77;45.92;96620.44;5013686;28;20026;-29